createdAt,value
2023-02-12T00:00:48.033Z,95975.28
2023-02-12T00:03:14.752Z,95989.78
2023-02-12T00:05:41.861Z,95974.88
2023-02-12T00:08:11.302Z,95995.59
2023-02-12T00:10:43.204Z,95985.97
2023-02-12T00:13:11.330Z,95982.19
2023-02-12T00:15:43.106Z,95987.75
2023-02-12T00:18:10.407Z,95983.13
2023-02-12T00:20:38.009Z,95979.59
2023-02-12T00:23:05.455Z,95966.09
2023-02-12T00:25:32.408Z,95981.44
2023-02-12T00:27:59.110Z,95966.59
2023-02-12T00:30:25.935Z,95959.28
2023-02-12T00:32:52.554Z,95937.09
2023-02-12T00:35:19.156Z,95965.09
2023-02-12T00:37:45.700Z,95937.81
2023-02-12T00:40:12.743Z,95963.28
2023-02-12T00:42:39.372Z,95963.13
2023-02-12T00:45:06.248Z,95950.84
2023-02-12T00:47:32.858Z,95945.97
2023-02-12T00:49:59.850Z,95940.13
2023-02-12T00:52:26.434Z,95939.44
2023-02-12T00:54:53.040Z,95934.78
2023-02-12T00:57:19.622Z,95936.50
2023-02-12T00:59:46.175Z,95936.22
2023-02-12T01:02:12.833Z,95911.91
2023-02-12T01:04:39.464Z,95930.75
2023-02-12T01:07:06.077Z,95929.63
2023-02-12T01:09:32.794Z,95930.75
2023-02-12T01:11:59.413Z,95934.88
2023-02-12T01:14:26.013Z,95934.97
2023-02-12T01:16:52.588Z,95917.81
2023-02-12T01:19:19.170Z,95944.31
2023-02-12T01:21:45.810Z,95927.75
2023-02-12T01:24:12.485Z,95949.53
2023-02-12T01:26:39.126Z,95940.97
2023-02-12T01:29:07.636Z,95933.59
2023-02-12T01:31:38.542Z,95947.38
2023-02-12T01:34:06.820Z,95936.94
2023-02-12T01:36:33.835Z,95930.28
2023-02-12T01:39:02.811Z,95929.19
2023-02-12T01:41:33.483Z,95928.78
2023-02-12T01:44:19.681Z,95918.72
2023-02-12T01:46:48.951Z,95901.00
2023-02-12T01:49:29.410Z,95903.00
2023-02-12T01:52:02.735Z,95893.59
2023-02-12T01:54:30.003Z,95898.13
2023-02-12T01:56:56.791Z,95922.22
2023-02-12T01:59:24.584Z,95922.19
2023-02-12T02:01:51.305Z,95908.41
2023-02-12T02:04:23.696Z,95925.13
2023-02-12T02:06:58.395Z,95909.53
2023-02-12T02:09:26.409Z,95914.16
2023-02-12T02:12:11.686Z,95922.25
2023-02-12T02:14:40.249Z,95897.97
2023-02-12T02:17:28.042Z,95902.69
2023-02-12T02:20:28.385Z,95899.94
2023-02-12T02:23:07.309Z,95907.47
2023-02-12T02:25:57.481Z,95912.03
2023-02-12T02:29:04.736Z,95906.81
2023-02-12T02:31:37.472Z,95896.94
2023-02-12T02:34:10.509Z,95897.13
2023-02-12T02:37:19.619Z,95894.41
2023-02-12T02:39:46.264Z,95901.63
2023-02-12T02:42:37.569Z,95902.16
2023-02-12T02:45:10.064Z,95897.31
2023-02-12T02:48:15.859Z,95888.88
2023-02-12T02:50:47.741Z,95901.16
2023-02-12T02:53:29.853Z,95876.59
2023-02-12T02:56:01.559Z,95873.09
2023-02-12T02:58:35.831Z,95909.81
2023-02-12T03:01:21.197Z,95914.94
2023-02-12T03:03:59.066Z,95883.72
2023-02-12T03:06:47.089Z,95895.78
2023-02-12T03:09:34.868Z,95910.91
2023-02-12T03:12:06.319Z,95916.31
2023-02-12T03:14:39.592Z,95890.63
2023-02-12T03:17:13.926Z,95896.88
2023-02-12T03:19:46.745Z,95917.47
2023-02-12T03:22:23.292Z,95899.84
2023-02-12T03:24:54.251Z,95880.41
2023-02-12T03:27:33.849Z,95898.03
2023-02-12T03:30:01.660Z,95898.53
2023-02-12T03:32:28.323Z,95906.25
2023-02-12T03:35:25.426Z,95885.91
2023-02-12T03:38:07.421Z,95901.88
2023-02-12T03:40:51.201Z,95830.22
2023-02-12T03:43:28.493Z,95838.19
2023-02-12T03:46:04.645Z,95887.66
2023-02-12T03:48:44.076Z,95882.28
2023-02-12T03:51:29.169Z,95893.91
2023-02-12T03:53:57.544Z,95891.94
2023-02-12T03:56:37.816Z,95883.84
2023-02-12T03:59:05.603Z,95872.88
2023-02-12T04:01:34.118Z,95886.69
2023-02-12T04:04:05.507Z,95891.66
2023-02-12T04:06:32.252Z,95876.31
2023-02-12T04:09:03.475Z,95862.06
2023-02-12T04:11:44.104Z,95885.16
2023-02-12T04:14:14.426Z,95908.44
2023-02-12T04:16:51.920Z,95897.88
2023-02-12T04:19:28.002Z,95894.44
2023-02-12T04:22:36.296Z,95911.50
2023-02-12T04:25:15.011Z,95905.88
2023-02-12T04:27:52.506Z,95894.81
2023-02-12T04:30:29.115Z,95908.72
2023-02-12T04:33:02.073Z,95899.41
2023-02-12T04:35:36.505Z,95893.38
2023-02-12T04:38:06.149Z,95914.84
2023-02-12T04:40:33.100Z,95890.63
2023-02-12T04:42:59.834Z,95897.16
2023-02-12T04:45:29.690Z,95884.59
2023-02-12T04:47:57.081Z,95889.94
2023-02-12T04:50:23.899Z,95864.16
2023-02-12T04:52:51.857Z,95911.03
2023-02-12T04:55:19.166Z,95930.28
2023-02-12T04:57:45.930Z,95938.75
2023-02-12T05:00:15.043Z,95929.88
2023-02-12T05:02:41.870Z,95905.47
2023-02-12T05:05:08.718Z,95893.97
2023-02-12T05:07:35.542Z,95865.00
2023-02-12T05:10:02.322Z,95941.75
2023-02-12T05:12:28.984Z,95896.22
2023-02-12T05:14:55.791Z,95888.63
2023-02-12T05:17:23.761Z,95934.50
2023-02-12T05:19:50.596Z,95936.00
2023-02-12T05:22:17.980Z,95938.75
2023-02-12T05:24:44.848Z,95944.56
2023-02-12T05:27:11.602Z,95937.13
2023-02-12T05:29:38.393Z,95937.81
2023-02-12T05:32:06.938Z,95953.59
2023-02-12T05:34:34.416Z,95939.81
2023-02-12T05:37:01.082Z,95961.63
2023-02-12T05:39:27.806Z,95955.06
2023-02-12T05:41:54.622Z,95963.91
2023-02-12T05:44:21.358Z,95964.59
2023-02-12T05:46:48.114Z,95968.31
2023-02-12T05:49:14.838Z,95973.56
2023-02-12T05:51:42.046Z,95961.56
2023-02-12T05:54:08.863Z,95959.97
2023-02-12T05:56:38.057Z,95957.81
2023-02-12T05:59:12.489Z,95976.19
2023-02-12T06:01:43.117Z,95973.00
2023-02-12T06:04:24.599Z,95958.53
2023-02-12T06:06:52.776Z,95956.75
2023-02-12T06:09:19.779Z,95984.03
2023-02-12T06:11:46.399Z,95982.94
2023-02-12T06:14:16.016Z,95975.31
2023-02-12T06:16:46.754Z,95981.03
2023-02-12T06:19:13.487Z,95991.31
2023-02-12T06:21:40.715Z,95987.91
2023-02-12T06:24:07.604Z,95936.97
2023-02-12T06:26:34.279Z,95978.59
2023-02-12T06:29:01.694Z,95917.41
2023-02-12T06:31:33.766Z,95974.03
2023-02-12T06:34:02.816Z,95967.88
2023-02-12T06:36:30.169Z,95908.84
2023-02-12T06:38:56.953Z,95928.00
2023-02-12T06:41:24.377Z,95976.28
2023-02-12T06:43:51.422Z,95934.13
2023-02-12T06:46:18.234Z,95952.22
2023-02-12T06:48:45.306Z,95967.84
2023-02-12T06:51:15.130Z,95989.00
2023-02-12T06:53:42.176Z,95959.97
2023-02-12T06:56:13.686Z,95984.91
2023-02-12T06:58:42.176Z,95989.06
2023-02-12T07:01:13.468Z,95988.78
2023-02-12T07:03:42.180Z,95981.72
2023-02-12T07:06:11.897Z,95972.94
2023-02-12T07:08:38.998Z,95867.75
2023-02-12T07:11:06.245Z,95983.41
2023-02-12T07:13:35.042Z,95956.94
2023-02-12T07:16:09.502Z,95925.94
2023-02-12T07:18:37.315Z,95972.84
2023-02-12T07:21:05.861Z,95960.50
2023-02-12T07:23:33.364Z,95992.63
2023-02-12T07:26:13.533Z,95988.53
2023-02-12T07:28:43.961Z,96010.78
2023-02-12T07:31:15.097Z,95994.16
2023-02-12T07:33:42.919Z,96016.69
2023-02-12T07:36:13.170Z,95986.56
2023-02-12T07:38:40.196Z,95954.31
2023-02-12T07:41:12.506Z,96029.41
2023-02-12T07:43:44.367Z,95999.44
2023-02-12T07:46:20.660Z,95991.59
2023-02-12T07:48:48.228Z,95991.94
2023-02-12T07:51:19.410Z,95964.84
2023-02-12T07:53:47.038Z,95954.97
2023-02-12T07:56:25.611Z,95983.81
2023-02-12T07:58:53.601Z,95999.19
2023-02-12T08:01:21.755Z,96032.75
2023-02-12T08:03:50.731Z,95998.94
2023-02-12T08:06:20.370Z,96030.50
2023-02-12T08:08:47.908Z,96021.19
2023-02-12T08:11:15.854Z,96017.09
2023-02-12T08:13:42.885Z,96034.47
2023-02-12T08:16:15.825Z,96001.25
2023-02-12T08:18:43.511Z,95991.09
2023-02-12T08:21:16.525Z,96022.41
2023-02-12T08:23:43.090Z,96028.94
2023-02-12T08:26:14.176Z,96029.63
2023-02-12T08:28:46.652Z,96030.69
2023-02-12T08:31:17.290Z,96025.13
2023-02-12T08:33:45.690Z,96036.72
2023-02-12T08:36:15.616Z,96029.53
2023-02-12T08:38:47.024Z,96034.03
2023-02-12T08:41:22.345Z,96046.66
2023-02-12T08:43:50.000Z,96046.00
2023-02-12T08:46:21.858Z,96067.84
2023-02-12T08:48:48.595Z,96064.88
2023-02-12T08:51:20.640Z,96054.81
2023-02-12T08:53:51.477Z,96041.03
2023-02-12T08:56:18.888Z,96049.97
2023-02-12T08:58:48.795Z,96074.16
2023-02-12T09:01:26.194Z,96070.75
2023-02-12T09:03:56.623Z,96046.63
2023-02-12T09:06:25.300Z,96066.06
2023-02-12T09:08:55.868Z,96060.06
2023-02-12T09:11:26.709Z,96072.09
2023-02-12T09:13:56.020Z,96069.19
2023-02-12T09:16:22.795Z,96076.22
2023-02-12T09:18:49.398Z,95971.72
2023-02-12T09:21:22.191Z,96082.06
2023-02-12T09:23:49.422Z,96065.59
2023-02-12T09:26:20.857Z,96077.88
2023-02-12T09:28:49.835Z,96068.78
2023-02-12T09:31:21.058Z,96066.97
2023-02-12T09:33:51.693Z,96079.53
2023-02-12T09:36:21.032Z,96071.72
2023-02-12T09:38:48.843Z,96080.38
2023-02-12T09:41:52.840Z,96086.25
2023-02-12T09:44:28.668Z,96081.56
2023-02-12T09:47:15.463Z,96045.50
2023-02-12T09:49:48.822Z,96100.22
2023-02-12T09:52:22.499Z,96077.41
2023-02-12T09:54:50.404Z,96043.53
2023-02-12T09:57:34.645Z,96096.75
2023-02-12T10:00:24.925Z,96054.22
2023-02-12T10:02:53.802Z,95983.84
2023-02-12T10:05:27.196Z,96065.91
2023-02-12T10:08:06.023Z,96060.44
2023-02-12T10:10:52.561Z,96106.34
2023-02-12T10:13:26.518Z,96115.47
2023-02-12T10:16:16.941Z,96075.22
2023-02-12T10:18:52.527Z,96110.03
2023-02-12T10:21:46.354Z,95998.97
2023-02-12T10:24:18.946Z,96096.03
2023-02-12T10:26:53.141Z,96092.66
2023-02-12T10:29:26.062Z,96096.63
2023-02-12T10:32:00.707Z,96045.41
2023-02-12T10:34:33.496Z,96112.44
2023-02-12T10:37:10.436Z,96095.16
2023-02-12T10:39:42.593Z,96038.88
2023-02-12T10:42:18.534Z,96057.84
2023-02-12T10:44:46.160Z,96064.44
2023-02-12T10:47:20.724Z,96077.09
2023-02-12T10:49:55.969Z,96049.00
2023-02-12T10:52:37.876Z,96049.53
2023-02-12T10:55:24.868Z,96072.97
2023-02-12T10:57:51.973Z,96078.38
2023-02-12T11:00:26.396Z,96087.69
2023-02-12T11:03:06.790Z,96085.75
2023-02-12T11:05:36.180Z,96017.53
2023-02-12T11:08:04.645Z,96095.34
2023-02-12T11:10:40.365Z,96077.66
2023-02-12T11:13:22.474Z,96028.81
2023-02-12T11:15:49.769Z,96102.72
2023-02-12T11:18:33.055Z,96046.91
2023-02-12T11:21:05.323Z,96098.50
2023-02-12T11:23:33.338Z,96085.41
2023-02-12T11:26:04.770Z,96055.00
2023-02-12T11:28:35.208Z,96101.94
2023-02-12T11:31:10.596Z,96072.66
2023-02-12T11:33:38.989Z,96101.53
2023-02-12T11:36:17.267Z,96064.97
2023-02-12T11:38:55.906Z,96103.88
2023-02-12T11:41:22.549Z,96105.81
2023-02-12T11:43:50.889Z,96096.19
2023-02-12T11:46:25.758Z,96048.47
2023-02-12T11:48:55.572Z,96090.44
2023-02-12T11:51:26.656Z,96090.03
2023-02-12T11:53:56.325Z,96043.84
2023-02-12T11:56:23.046Z,95992.66
2023-02-12T11:58:53.314Z,96010.00
2023-02-12T12:01:30.096Z,96086.94
2023-02-12T12:04:05.620Z,96090.00
2023-02-12T12:06:38.263Z,96092.28
2023-02-12T12:09:16.862Z,96092.31
2023-02-12T12:12:10.525Z,96100.00
2023-02-12T12:15:04.363Z,96023.84
2023-02-12T12:18:08.723Z,96090.78
2023-02-12T12:20:47.521Z,96025.38
2023-02-12T12:23:40.416Z,96060.41
2023-02-12T12:26:13.706Z,96086.19
2023-02-12T12:29:02.430Z,96095.06
2023-02-12T12:31:53.899Z,96031.94
2023-02-12T12:34:23.896Z,96093.13
2023-02-12T12:37:05.464Z,96100.06
2023-02-12T12:40:02.872Z,96100.03
2023-02-12T12:42:29.525Z,96103.50
2023-02-12T12:45:06.081Z,96105.44
2023-02-12T12:47:53.583Z,96105.44
2023-02-12T12:50:29.413Z,96109.66
2023-02-12T12:52:55.948Z,96106.19
2023-02-12T12:55:49.098Z,96105.44
2023-02-12T12:58:18.830Z,96111.56
2023-02-12T13:01:03.944Z,96113.47
2023-02-12T13:04:05.708Z,96083.88
2023-02-12T13:06:59.644Z,96114.69
2023-02-12T13:09:38.501Z,96122.75
2023-02-12T13:12:14.336Z,96123.91
2023-02-12T13:14:43.751Z,96131.59
2023-02-12T13:17:59.108Z,96107.75
2023-02-12T13:20:31.726Z,96076.94
2023-02-12T13:23:24.558Z,96107.34
2023-02-12T13:25:57.591Z,96106.19
2023-02-12T13:28:49.271Z,96085.38
2023-02-12T13:31:32.881Z,96106.94
2023-02-12T13:34:05.029Z,96119.28
2023-02-12T13:36:34.872Z,96105.41
2023-02-12T13:39:18.893Z,96139.28
2023-02-12T13:41:57.326Z,96137.75
2023-02-12T13:44:37.054Z,96125.84
2023-02-12T13:47:12.128Z,96138.16
2023-02-12T13:49:48.240Z,96096.19
2023-02-12T13:52:36.415Z,96140.06
2023-02-12T13:55:29.151Z,96132.38
2023-02-12T13:58:14.467Z,96148.56
2023-02-12T14:00:50.156Z,96157.41
2023-02-12T14:03:16.966Z,96093.09
2023-02-12T14:05:43.814Z,96170.09
2023-02-12T14:08:34.822Z,96165.47
2023-02-12T14:11:12.295Z,96179.72
2023-02-12T14:13:56.644Z,96178.19
2023-02-12T14:16:43.531Z,96176.25
2023-02-12T14:19:51.218Z,96186.25
2023-02-12T14:22:26.718Z,96195.41
2023-02-12T14:24:55.632Z,96166.97
2023-02-12T14:27:31.324Z,96197.38
2023-02-12T14:30:07.176Z,96185.41
2023-02-12T14:32:53.509Z,96197.00
2023-02-12T14:35:36.697Z,96170.31
2023-02-12T14:38:24.604Z,96142.16
2023-02-12T14:40:53.648Z,96196.91
2023-02-12T14:43:55.347Z,96213.06
2023-02-12T14:46:26.225Z,96212.69
2023-02-12T14:49:05.604Z,96222.31
2023-02-12T14:52:35.449Z,96214.97
2023-02-12T14:55:06.534Z,96233.03
2023-02-12T14:57:40.085Z,96236.50
2023-02-12T15:00:18.840Z,96227.63
2023-02-12T15:02:51.468Z,96221.09
2023-02-12T15:05:47.767Z,96241.84
2023-02-12T15:08:40.194Z,96244.13
2023-02-12T15:11:19.543Z,96246.09
2023-02-12T15:13:57.119Z,96223.25
2023-02-12T15:16:43.060Z,96239.81
2023-02-12T15:19:37.415Z,96232.84
2023-02-12T15:22:04.129Z,96252.00
2023-02-12T15:24:30.757Z,96271.69
2023-02-12T15:26:59.660Z,96279.63
2023-02-12T15:29:33.453Z,96290.91
2023-02-12T15:32:04.289Z,96295.50
2023-02-12T15:34:33.805Z,96237.00
2023-02-12T15:37:03.064Z,96290.00
2023-02-12T15:39:57.691Z,96300.78
2023-02-12T15:42:36.019Z,96278.78
2023-02-12T15:45:08.205Z,96296.00
2023-02-12T15:47:38.264Z,96290.22
2023-02-12T15:50:05.475Z,96301.81
2023-02-12T15:52:38.874Z,96312.91
2023-02-12T15:55:06.652Z,96319.03
2023-02-12T15:57:33.674Z,96308.97
2023-02-12T16:00:11.286Z,96324.31
2023-02-12T16:02:37.908Z,96320.03
2023-02-12T16:05:05.829Z,96345.19
2023-02-12T16:07:38.011Z,96329.31
2023-02-12T16:10:06.355Z,96345.84
2023-02-12T16:12:37.741Z,96344.00
2023-02-12T16:15:05.509Z,96345.94
2023-02-12T16:17:34.935Z,96359.00
2023-02-12T16:20:04.502Z,96354.75
2023-02-12T16:22:36.935Z,96363.94
2023-02-12T16:25:13.412Z,96349.09
2023-02-12T16:27:40.529Z,96378.41
2023-02-12T16:30:33.144Z,96376.25
2023-02-12T16:33:00.467Z,96376.84
2023-02-12T16:35:32.977Z,96336.44
2023-02-12T16:38:11.638Z,96392.41
2023-02-12T16:40:40.088Z,96378.38
2023-02-12T16:43:29.865Z,96383.72
2023-02-12T16:46:05.191Z,96390.66
2023-02-12T16:48:38.389Z,96357.41
2023-02-12T16:51:06.367Z,96396.16
2023-02-12T16:53:36.836Z,96399.75
2023-02-12T16:56:05.616Z,96396.94
2023-02-12T16:58:32.361Z,96397.25
2023-02-12T17:01:02.613Z,96393.56
2023-02-12T17:03:29.512Z,96419.28
2023-02-12T17:05:56.699Z,96419.25
2023-02-12T17:08:25.051Z,96417.59
2023-02-12T17:10:52.517Z,96423.91
2023-02-12T17:13:20.943Z,96432.19
2023-02-12T17:15:54.600Z,96421.22
2023-02-12T17:18:22.318Z,96450.75
2023-02-12T17:20:56.465Z,96423.81
2023-02-12T17:23:23.727Z,96409.84
2023-02-12T17:25:50.599Z,96426.41
2023-02-12T17:28:17.635Z,96434.00
2023-02-12T17:30:47.363Z,96464.66
2023-02-12T17:33:14.098Z,96452.97
2023-02-12T17:35:40.937Z,96479.66
2023-02-12T17:38:07.941Z,96466.06
2023-02-12T17:40:38.548Z,96478.31
2023-02-12T17:43:06.137Z,96478.84
2023-02-12T17:45:33.130Z,96464.09
2023-02-12T17:47:59.782Z,96469.72
2023-02-12T17:50:26.835Z,96485.81
2023-02-12T17:52:53.469Z,96492.66
2023-02-12T17:55:25.154Z,96495.16
2023-02-12T17:57:53.745Z,96489.03
2023-02-12T18:00:24.228Z,96484.38
2023-02-12T18:02:52.211Z,96505.38
2023-02-12T18:05:21.729Z,96480.22
2023-02-12T18:07:48.403Z,96497.00
2023-02-12T18:10:15.532Z,96477.22
2023-02-12T18:12:42.406Z,96486.84
2023-02-12T18:15:10.124Z,96461.88
2023-02-12T18:17:37.638Z,96466.53
2023-02-12T18:20:04.688Z,96478.44
2023-02-12T18:22:33.320Z,96490.34
2023-02-12T18:24:59.935Z,96488.78
2023-02-12T18:27:26.681Z,96487.75
2023-02-12T18:29:53.488Z,96495.78
2023-02-12T18:32:20.140Z,96460.41
2023-02-12T18:34:46.805Z,96495.81
2023-02-12T18:37:14.209Z,96494.03
2023-02-12T18:39:41.192Z,96499.53
2023-02-12T18:42:11.037Z,96485.72
2023-02-12T18:44:37.876Z,96498.75
2023-02-12T18:47:04.724Z,96493.38
2023-02-12T18:49:31.535Z,96482.59
2023-02-12T18:51:58.524Z,96489.66
2023-02-12T18:54:25.201Z,96521.03
2023-02-12T18:56:53.499Z,96531.84
2023-02-12T18:59:21.113Z,96530.94
2023-02-12T19:01:50.540Z,96517.03
2023-02-12T19:04:19.617Z,96541.84
2023-02-12T19:06:50.396Z,96543.78
2023-02-12T19:09:20.276Z,96514.56
2023-02-12T19:11:48.741Z,96550.91
2023-02-12T19:14:17.034Z,96554.63
2023-02-12T19:16:45.162Z,96526.03
2023-02-12T19:19:13.228Z,96556.63
2023-02-12T19:21:43.072Z,96554.03
2023-02-12T19:24:12.377Z,96534.28
2023-02-12T19:26:40.018Z,96535.84
2023-02-12T19:29:07.418Z,96538.03
2023-02-12T19:31:37.039Z,96546.31
2023-02-12T19:34:14.630Z,96557.44
2023-02-12T19:36:41.594Z,96559.94
2023-02-12T19:39:08.790Z,96528.56
2023-02-12T19:41:41.089Z,96523.81
2023-02-12T19:44:18.892Z,96541.31
2023-02-12T19:46:46.852Z,96569.25
2023-02-12T19:49:16.968Z,96569.72
2023-02-12T19:51:44.366Z,96563.50
2023-02-12T19:54:13.254Z,96564.03
2023-02-12T19:56:40.598Z,96577.03
2023-02-12T19:59:07.965Z,96556.50
2023-02-12T20:01:35.196Z,96578.47
2023-02-12T20:04:02.941Z,96583.31
2023-02-12T20:06:33.277Z,96573.34
2023-02-12T20:08:59.936Z,96589.72
2023-02-12T20:11:31.368Z,96587.00
2023-02-12T20:13:58.481Z,96590.88
2023-02-12T20:16:34.313Z,96580.38
2023-02-12T20:19:05.788Z,96598.91
2023-02-12T20:21:32.825Z,96580.38
2023-02-12T20:24:01.777Z,96584.03
2023-02-12T20:26:32.339Z,96591.63
2023-02-12T20:29:01.646Z,96543.75
2023-02-12T20:31:32.547Z,96588.41
2023-02-12T20:34:02.260Z,96560.81
2023-02-12T20:36:34.469Z,96574.34
2023-02-12T20:39:01.402Z,96582.69
2023-02-12T20:41:28.834Z,96606.63
2023-02-12T20:43:59.494Z,96595.88
2023-02-12T20:46:26.959Z,96599.34
2023-02-12T20:48:55.123Z,96586.44
2023-02-12T20:51:27.912Z,96582.63
2023-02-12T20:53:55.550Z,96611.97
2023-02-12T20:56:27.623Z,96545.44
2023-02-12T20:58:56.887Z,96584.88
2023-02-12T21:01:34.727Z,96608.75
2023-02-12T21:04:05.331Z,96610.91
2023-02-12T21:06:31.986Z,96612.81
2023-02-12T21:08:58.634Z,96627.97
2023-02-12T21:11:29.213Z,96622.34
2023-02-12T21:14:12.437Z,96616.19
2023-02-12T21:16:48.735Z,96632.28
2023-02-12T21:19:16.257Z,96621.47
2023-02-12T21:21:47.083Z,96613.19
2023-02-12T21:24:17.151Z,96636.16
2023-02-12T21:26:44.227Z,96626.97
2023-02-12T21:29:11.151Z,96633.19
2023-02-12T21:31:45.811Z,96621.19
2023-02-12T21:34:21.328Z,96599.97
2023-02-12T21:36:49.011Z,96625.53
2023-02-12T21:39:24.686Z,96647.72
2023-02-12T21:41:53.914Z,96650.94
2023-02-12T21:44:21.771Z,96658.00
2023-02-12T21:46:48.446Z,96616.88
2023-02-12T21:49:24.861Z,96663.28
2023-02-12T21:51:54.511Z,96602.03
2023-02-12T21:54:21.336Z,96617.78
2023-02-12T21:56:49.701Z,96669.75
2023-02-12T21:59:16.870Z,96649.38
2023-02-12T22:01:55.257Z,96671.56
2023-02-12T22:04:22.109Z,96670.00
2023-02-12T22:06:51.094Z,96647.97
2023-02-12T22:09:19.617Z,96669.22
2023-02-12T22:11:46.456Z,96682.28
2023-02-12T22:14:15.312Z,96664.13
2023-02-12T22:16:42.679Z,96678.72
2023-02-12T22:19:09.715Z,96663.50
2023-02-12T22:21:39.537Z,96676.53
2023-02-12T22:24:10.766Z,96653.38
2023-02-12T22:26:37.468Z,96660.69
2023-02-12T22:29:08.058Z,96686.03
2023-02-12T22:31:37.098Z,96684.63
2023-02-12T22:34:06.739Z,96693.09
2023-02-12T22:36:36.152Z,96695.31
2023-02-12T22:39:03.675Z,96698.22
2023-02-12T22:41:30.451Z,96674.47
2023-02-12T22:44:00.298Z,96690.13
2023-02-12T22:46:27.792Z,96702.72
2023-02-12T22:48:54.521Z,96698.22
2023-02-12T22:51:25.518Z,96693.56
2023-02-12T22:53:52.603Z,96672.03
2023-02-12T22:56:19.560Z,96697.28
2023-02-12T22:58:46.389Z,96692.03
2023-02-12T23:01:18.322Z,96694.00
2023-02-12T23:03:46.348Z,96662.75
2023-02-12T23:06:18.757Z,96629.59
2023-02-12T23:08:48.583Z,96705.75
2023-02-12T23:11:15.246Z,96705.78
2023-02-12T23:13:42.010Z,96698.88
2023-02-12T23:16:08.705Z,96709.81
2023-02-12T23:18:35.441Z,96677.00
2023-02-12T23:21:02.387Z,96656.09
2023-02-12T23:23:29.043Z,96694.91
2023-02-12T23:25:56.381Z,96714.25
2023-02-12T23:28:23.679Z,96675.13
2023-02-12T23:30:51.858Z,96675.16
2023-02-12T23:33:19.923Z,96711.84
2023-02-12T23:35:48.104Z,96722.63
2023-02-12T23:38:15.503Z,96703.88
2023-02-12T23:40:42.902Z,96715.16
2023-02-12T23:43:09.576Z,96735.88
2023-02-12T23:45:36.197Z,96730.44
2023-02-12T23:48:02.921Z,96713.06
2023-02-12T23:50:29.646Z,96704.16
2023-02-12T23:52:56.396Z,96725.72
2023-02-12T23:55:23.106Z,96717.69
2023-02-12T23:57:50.499Z,96718.47
